createdAt,value
2022-08-19T00:01:28.819Z,58.93
2022-08-19T00:03:32.875Z,59.17
2022-08-19T00:05:36.040Z,59.08
2022-08-19T00:07:38.891Z,59.36
2022-08-19T00:09:41.743Z,58.98
2022-08-19T00:11:45.731Z,59.27
2022-08-19T00:13:49.598Z,59.29
2022-08-19T00:15:52.831Z,59.42
2022-08-19T00:17:55.720Z,59.20
2022-08-19T00:19:58.460Z,58.81
2022-08-19T00:22:01.307Z,58.85
2022-08-19T00:24:04.346Z,59.36
2022-08-19T00:26:08.278Z,59.18
2022-08-19T00:28:11.017Z,59.45
2022-08-19T00:30:14.006Z,59.48
2022-08-19T00:32:16.745Z,60.39
2022-08-19T00:34:20.990Z,59.97
2022-08-19T00:36:23.600Z,60.32
2022-08-19T00:38:29.641Z,60.15
2022-08-19T00:40:40.145Z,60.71
2022-08-19T00:42:43.004Z,60.50
2022-08-19T00:44:45.760Z,60.76
2022-08-19T00:47:07.742Z,60.87
2022-08-19T00:49:57.367Z,61.07
2022-08-19T00:52:07.803Z,60.96
2022-08-19T00:54:10.952Z,61.10
2022-08-19T00:56:13.755Z,61.36
2022-08-19T00:58:19.395Z,61.93
2022-08-19T01:00:24.539Z,61.68
2022-08-19T01:02:28.740Z,61.93
2022-08-19T01:04:31.394Z,61.90
2022-08-19T01:06:36.879Z,61.88
2022-08-19T01:08:39.681Z,62.26
2022-08-19T01:10:47.404Z,62.78
2022-08-19T01:12:51.534Z,62.18
2022-08-19T01:14:56.748Z,61.95
2022-08-19T01:17:02.818Z,62.42
2022-08-19T01:19:18.878Z,62.28
2022-08-19T01:21:30.377Z,61.82
2022-08-19T01:23:45.071Z,61.84
2022-08-19T01:25:53.348Z,62.09
2022-08-19T01:27:56.782Z,62.04
2022-08-19T01:30:08.029Z,62.26
2022-08-19T01:32:32.264Z,62.22
2022-08-19T01:34:36.425Z,62.11
2022-08-19T01:36:48.293Z,62.17
2022-08-19T01:38:50.891Z,62.45
2022-08-19T01:40:54.078Z,62.74
2022-08-19T01:42:56.764Z,62.59
2022-08-19T01:44:59.435Z,62.08
2022-08-19T01:47:02.086Z,62.05
2022-08-19T01:49:06.662Z,61.88
2022-08-19T01:51:10.840Z,61.90
2022-08-19T01:53:13.801Z,61.61
2022-08-19T01:55:22.757Z,61.57
2022-08-19T01:57:25.446Z,61.48
2022-08-19T01:59:29.110Z,61.59
2022-08-19T02:01:35.008Z,61.57
2022-08-19T02:03:37.708Z,61.55
2022-08-19T02:05:41.904Z,61.70
2022-08-19T02:07:45.737Z,60.98
2022-08-19T02:09:49.294Z,61.54
2022-08-19T02:11:52.033Z,62.29
2022-08-19T02:13:55.985Z,62.26
2022-08-19T02:15:59.002Z,61.93
2022-08-19T02:18:02.641Z,62.19
2022-08-19T02:20:08.109Z,62.30
2022-08-19T02:22:10.735Z,62.72
2022-08-19T02:24:13.553Z,62.66
2022-08-19T02:26:17.043Z,62.92
2022-08-19T02:28:19.760Z,62.71
2022-08-19T02:30:22.750Z,61.97
2022-08-19T02:32:25.374Z,62.15
2022-08-19T02:34:27.970Z,61.85
2022-08-19T02:36:31.511Z,61.83
2022-08-19T02:38:34.494Z,61.66
2022-08-19T02:40:37.269Z,61.22
2022-08-19T02:42:41.929Z,61.12
2022-08-19T02:44:44.604Z,60.96
2022-08-19T02:46:49.033Z,61.18
2022-08-19T02:48:56.821Z,61.19
2022-08-19T02:51:00.552Z,60.88
2022-08-19T02:53:03.211Z,60.33
2022-08-19T02:55:06.686Z,60.42
2022-08-19T02:57:09.467Z,59.55
2022-08-19T02:59:13.170Z,59.82
2022-08-19T03:01:25.118Z,58.97
2022-08-19T03:03:28.352Z,59.30
2022-08-19T03:05:56.146Z,59.53
2022-08-19T03:07:54.028Z,58.72
2022-08-19T03:09:56.708Z,58.85
2022-08-19T03:11:59.331Z,58.42
2022-08-19T03:14:03.500Z,58.24
2022-08-19T03:16:06.859Z,57.39
2022-08-19T03:18:09.840Z,57.41
2022-08-19T03:20:12.605Z,57.31
2022-08-19T03:22:16.266Z,57.59
2022-08-19T03:24:19.946Z,57.05
2022-08-19T03:26:22.986Z,56.87
2022-08-19T03:28:25.709Z,56.62
2022-08-19T03:30:28.347Z,56.43
2022-08-19T03:32:33.110Z,56.01
2022-08-19T03:34:38.949Z,55.51
2022-08-19T03:36:41.981Z,55.38
2022-08-19T03:38:48.071Z,55.33
2022-08-19T03:40:59.342Z,55.03
2022-08-19T03:43:02.562Z,54.45
2022-08-19T03:45:06.202Z,53.99
2022-08-19T03:47:08.892Z,54.23
2022-08-19T03:49:11.762Z,53.81
2022-08-19T03:51:31.210Z,53.90
2022-08-19T03:53:36.177Z,53.37
2022-08-19T03:55:42.627Z,52.88
2022-08-19T03:57:46.954Z,52.44
2022-08-19T03:59:49.643Z,52.99
2022-08-19T04:01:56.984Z,52.45
2022-08-19T04:04:00.845Z,50.92
2022-08-19T04:06:18.830Z,51.29
2022-08-19T04:08:23.408Z,50.74
2022-08-19T04:10:26.243Z,49.31
2022-08-19T04:12:29.574Z,48.59
2022-08-19T04:14:32.830Z,48.55
2022-08-19T04:16:35.798Z,48.30
2022-08-19T04:18:39.781Z,48.48
2022-08-19T04:20:45.558Z,48.17
2022-08-19T04:22:48.082Z,48.03
2022-08-19T04:24:50.651Z,47.45
2022-08-19T04:26:54.046Z,47.64
2022-08-19T04:28:56.690Z,46.54
2022-08-19T04:30:59.725Z,46.27
2022-08-19T04:33:02.293Z,46.06
2022-08-19T04:35:17.026Z,46.63
2022-08-19T04:37:20.427Z,46.83
2022-08-19T04:39:49.713Z,46.09
2022-08-19T04:42:10.928Z,46.08
2022-08-19T04:44:14.487Z,44.98
2022-08-19T04:46:40.519Z,45.05
2022-08-19T04:48:44.936Z,45.02
2022-08-19T04:50:58.831Z,44.73
2022-08-19T04:53:01.449Z,45.31
2022-08-19T04:55:06.322Z,44.22
2022-08-19T04:57:11.095Z,43.88
2022-08-19T04:59:15.846Z,43.19
2022-08-19T05:01:22.522Z,43.16
2022-08-19T05:03:30.046Z,43.19
2022-08-19T05:05:44.980Z,42.85
2022-08-19T05:07:48.698Z,43.07
2022-08-19T05:09:58.478Z,42.63
2022-08-19T05:12:02.006Z,42.38
2022-08-19T05:14:04.614Z,42.19
2022-08-19T05:16:07.731Z,41.90
2022-08-19T05:18:29.468Z,42.44
2022-08-19T05:20:50.794Z,42.69
2022-08-19T05:22:53.662Z,42.20
2022-08-19T05:25:11.625Z,43.57
2022-08-19T05:27:15.302Z,42.90
2022-08-19T05:29:20.789Z,42.54
2022-08-19T05:31:24.990Z,42.68
2022-08-19T05:33:27.835Z,42.99
2022-08-19T05:35:34.674Z,41.77
2022-08-19T05:37:37.841Z,42.23
2022-08-19T05:39:41.635Z,42.47
2022-08-19T05:41:45.486Z,42.45
2022-08-19T05:43:48.113Z,41.95
2022-08-19T05:45:51.889Z,42.26
2022-08-19T05:47:55.069Z,41.65
2022-08-19T05:49:57.648Z,42.40
2022-08-19T05:52:04.923Z,42.12
2022-08-19T05:54:09.550Z,42.00
2022-08-19T05:56:17.574Z,42.34
2022-08-19T05:58:20.550Z,43.17
2022-08-19T06:00:25.848Z,44.02
2022-08-19T06:02:29.995Z,43.58
2022-08-19T06:04:32.633Z,42.88
2022-08-19T06:06:36.746Z,43.15
2022-08-19T06:08:40.069Z,42.97
2022-08-19T06:10:42.624Z,42.94
2022-08-19T06:12:45.213Z,42.91
2022-08-19T06:14:47.873Z,42.97
2022-08-19T06:17:06.891Z,43.91
2022-08-19T06:19:14.322Z,43.22
2022-08-19T06:21:16.965Z,42.80
2022-08-19T06:23:20.615Z,43.12
2022-08-19T06:25:30.457Z,42.26
2022-08-19T06:27:34.499Z,42.39
2022-08-19T06:29:37.035Z,42.49
2022-08-19T06:31:46.032Z,42.60
2022-08-19T06:33:50.216Z,42.29
2022-08-19T06:35:53.395Z,42.43
2022-08-19T06:37:56.351Z,42.36
2022-08-19T06:39:59.110Z,42.60
2022-08-19T06:42:04.868Z,42.38
2022-08-19T06:44:08.700Z,42.17
2022-08-19T06:46:17.659Z,41.68
2022-08-19T06:48:20.676Z,42.00
2022-08-19T06:50:25.027Z,42.16
2022-08-19T06:52:27.791Z,41.92
2022-08-19T06:54:31.594Z,40.54
2022-08-19T06:56:40.762Z,40.44
2022-08-19T06:58:43.383Z,40.54
2022-08-19T07:00:45.989Z,39.80
2022-08-19T07:02:54.297Z,40.26
2022-08-19T07:05:06.704Z,40.63
2022-08-19T07:07:20.005Z,40.22
2022-08-19T07:09:23.748Z,39.73
2022-08-19T07:11:26.496Z,40.15
2022-08-19T07:13:33.752Z,40.62
2022-08-19T07:15:39.772Z,40.37
2022-08-19T07:17:44.434Z,40.46
2022-08-19T07:19:47.317Z,40.20
2022-08-19T07:21:53.808Z,39.76
2022-08-19T07:24:01.841Z,39.68
2022-08-19T07:26:15.253Z,40.54
2022-08-19T07:28:24.276Z,40.22
2022-08-19T07:30:27.715Z,40.75
2022-08-19T07:32:32.604Z,40.69
2022-08-19T07:34:38.245Z,40.56
2022-08-19T07:36:44.996Z,40.31
2022-08-19T07:38:50.678Z,40.30
2022-08-19T07:40:53.347Z,41.17
2022-08-19T07:42:56.166Z,40.95
2022-08-19T07:44:59.892Z,41.11
2022-08-19T07:47:03.319Z,41.18
2022-08-19T07:49:09.249Z,42.01
2022-08-19T07:51:14.416Z,42.28
2022-08-19T07:53:39.624Z,42.74
2022-08-19T07:55:43.984Z,42.77
2022-08-19T07:57:46.763Z,41.84
2022-08-19T07:59:49.376Z,41.27
2022-08-19T08:01:52.619Z,41.34
2022-08-19T08:04:15.786Z,43.28
2022-08-19T08:06:37.006Z,40.98
2022-08-19T08:09:02.701Z,41.63
2022-08-19T08:11:10.371Z,42.19
2022-08-19T08:13:13.539Z,43.05
2022-08-19T08:15:17.626Z,40.93
2022-08-19T08:17:30.872Z,41.82
2022-08-19T08:19:45.819Z,40.42
2022-08-19T08:21:50.036Z,40.36
2022-08-19T08:23:56.698Z,39.95
2022-08-19T08:26:00.201Z,40.79
2022-08-19T08:28:05.889Z,39.84
2022-08-19T08:30:20.292Z,40.08
2022-08-19T08:32:22.999Z,39.27
2022-08-19T08:34:25.652Z,39.26
2022-08-19T08:36:28.888Z,39.12
2022-08-19T08:38:39.110Z,39.05
2022-08-19T08:40:57.020Z,39.21
2022-08-19T08:43:06.369Z,38.55
2022-08-19T08:45:17.967Z,38.91
2022-08-19T08:47:23.375Z,39.40
2022-08-19T08:49:46.625Z,38.58
2022-08-19T08:52:02.317Z,38.35
2022-08-19T08:54:14.114Z,37.98
2022-08-19T08:56:18.459Z,38.33
2022-08-19T08:58:29.744Z,38.07
2022-08-19T09:00:38.099Z,38.49
2022-08-19T09:02:40.801Z,38.60
2022-08-19T09:04:46.671Z,37.97
2022-08-19T09:07:08.644Z,37.56
2022-08-19T09:09:36.074Z,38.03
2022-08-19T09:12:00.747Z,38.33
2022-08-19T09:14:34.937Z,38.92
2022-08-19T09:16:35.882Z,37.96
2022-08-19T09:18:53.969Z,38.18
2022-08-19T09:20:57.947Z,36.90
2022-08-19T09:23:00.769Z,36.44
2022-08-19T09:25:06.050Z,37.28
2022-08-19T09:27:18.572Z,37.07
2022-08-19T09:29:22.456Z,36.45
2022-08-19T09:31:28.611Z,36.74
2022-08-19T09:33:32.335Z,36.93
2022-08-19T09:35:49.414Z,37.22
2022-08-19T09:37:57.667Z,37.38
2022-08-19T09:40:03.211Z,36.56
2022-08-19T09:42:16.448Z,36.29
2022-08-19T09:44:35.647Z,36.88
2022-08-19T09:46:38.663Z,36.56
2022-08-19T09:48:42.368Z,36.52
2022-08-19T09:50:51.726Z,37.05
2022-08-19T09:52:56.976Z,36.35
2022-08-19T09:55:00.682Z,36.41
2022-08-19T09:57:10.071Z,35.55
2022-08-19T09:59:13.259Z,37.02
2022-08-19T10:01:25.324Z,36.96
2022-08-19T10:03:29.920Z,35.72
2022-08-19T10:05:55.261Z,35.90
2022-08-19T10:07:58.593Z,35.84
2022-08-19T10:10:01.193Z,36.38
2022-08-19T10:12:06.137Z,35.35
2022-08-19T10:14:09.272Z,35.50
2022-08-19T10:16:19.597Z,35.59
2022-08-19T10:18:25.535Z,35.78
2022-08-19T10:20:30.514Z,35.17
2022-08-19T10:22:33.361Z,35.26
2022-08-19T10:24:36.084Z,35.35
2022-08-19T10:26:43.076Z,34.95
2022-08-19T10:28:47.197Z,34.63
2022-08-19T10:30:49.840Z,34.93
2022-08-19T10:32:52.566Z,34.50
2022-08-19T10:34:57.042Z,33.72
2022-08-19T10:37:01.847Z,33.41
2022-08-19T10:39:08.969Z,32.98
2022-08-19T10:41:20.991Z,33.42
2022-08-19T10:43:23.841Z,33.36
2022-08-19T10:45:28.114Z,34.02
2022-08-19T10:47:31.619Z,33.53
2022-08-19T10:49:54.454Z,33.50
2022-08-19T10:52:20.257Z,32.38
2022-08-19T10:54:44.887Z,32.38
2022-08-19T10:56:54.037Z,31.25
2022-08-19T10:58:57.890Z,32.35
2022-08-19T11:01:00.564Z,32.30
2022-08-19T11:03:03.151Z,31.09
2022-08-19T11:05:12.749Z,31.51
2022-08-19T11:07:16.489Z,31.66
2022-08-19T11:09:22.704Z,32.64
2022-08-19T11:11:25.319Z,31.50
2022-08-19T11:13:37.893Z,30.83
2022-08-19T11:15:40.560Z,30.48
2022-08-19T11:17:44.820Z,29.74
2022-08-19T11:19:49.433Z,29.70
2022-08-19T11:21:54.854Z,29.47
2022-08-19T11:24:10.784Z,28.79
2022-08-19T11:26:13.701Z,29.60
2022-08-19T11:28:16.338Z,29.63
2022-08-19T11:30:19.044Z,28.98
2022-08-19T11:32:21.696Z,28.63
2022-08-19T11:34:28.650Z,28.63
2022-08-19T11:36:33.569Z,27.99
2022-08-19T11:38:36.947Z,27.82
2022-08-19T11:40:39.497Z,28.13
2022-08-19T11:42:57.872Z,28.67
2022-08-19T11:45:00.458Z,28.27
2022-08-19T11:47:08.808Z,26.29
2022-08-19T11:49:14.143Z,25.71
2022-08-19T11:51:20.649Z,26.29
2022-08-19T11:53:23.667Z,26.87
2022-08-19T11:55:26.381Z,25.90
2022-08-19T11:57:28.955Z,26.15
2022-08-19T11:59:31.829Z,26.45
2022-08-19T12:01:34.862Z,26.64
2022-08-19T12:03:39.083Z,25.67
2022-08-19T12:05:42.400Z,25.20
2022-08-19T12:07:45.058Z,25.20
2022-08-19T12:09:48.661Z,26.36
2022-08-19T12:11:52.015Z,25.66
2022-08-19T12:13:55.437Z,26.23
2022-08-19T12:15:59.385Z,25.76
2022-08-19T12:18:02.062Z,25.01
2022-08-19T12:20:07.224Z,25.12
2022-08-19T12:22:09.848Z,24.98
2022-08-19T12:24:12.513Z,24.63
2022-08-19T12:26:15.425Z,24.86
2022-08-19T12:28:21.696Z,25.11
2022-08-19T12:30:24.475Z,24.55
2022-08-19T12:32:27.609Z,25.08
2022-08-19T12:34:31.495Z,25.29
2022-08-19T12:36:34.905Z,24.27
2022-08-19T12:38:39.891Z,24.05
2022-08-19T12:40:43.047Z,24.85
2022-08-19T12:42:45.696Z,24.13
2022-08-19T12:44:48.724Z,24.14
2022-08-19T12:46:53.920Z,23.65
2022-08-19T12:48:57.783Z,23.24
2022-08-19T12:51:06.871Z,22.63
2022-08-19T12:53:10.085Z,21.71
2022-08-19T12:55:13.353Z,21.21
2022-08-19T12:57:16.539Z,22.40
2022-08-19T12:59:20.084Z,21.56
2022-08-19T13:01:23.463Z,20.93
2022-08-19T13:03:30.393Z,21.59
2022-08-19T13:05:35.265Z,21.03
2022-08-19T13:07:39.791Z,21.07
2022-08-19T13:09:43.676Z,20.70
2022-08-19T13:11:46.227Z,20.76
2022-08-19T13:13:52.076Z,22.27
2022-08-19T13:16:03.442Z,21.03
2022-08-19T13:18:06.541Z,21.37
2022-08-19T13:20:10.830Z,21.33
2022-08-19T13:22:15.164Z,21.12
2022-08-19T13:24:18.824Z,21.94
2022-08-19T13:26:22.275Z,22.25
2022-08-19T13:28:29.218Z,23.21
2022-08-19T13:30:50.672Z,20.36
2022-08-19T13:33:11.876Z,21.54
2022-08-19T13:35:16.828Z,21.63
2022-08-19T13:37:39.608Z,19.72
2022-08-19T13:39:42.336Z,20.57
2022-08-19T13:41:49.121Z,20.05
2022-08-19T13:43:51.785Z,21.52
2022-08-19T13:45:58.751Z,20.25
2022-08-19T13:48:07.610Z,19.41
2022-08-19T13:50:16.838Z,19.49
2022-08-19T13:52:19.775Z,21.38
2022-08-19T13:54:22.874Z,20.61
2022-08-19T13:56:26.523Z,19.57
2022-08-19T13:58:29.333Z,20.56
2022-08-19T14:00:37.374Z,20.98
2022-08-19T14:02:40.891Z,20.37
2022-08-19T14:04:43.699Z,19.68
2022-08-19T14:06:46.253Z,19.38
2022-08-19T14:08:48.900Z,19.43
2022-08-19T14:10:51.646Z,20.50
2022-08-19T14:12:56.817Z,19.64
2022-08-19T14:15:00.003Z,20.23
2022-08-19T14:17:02.640Z,19.96
2022-08-19T14:19:05.392Z,21.44
2022-08-19T14:21:08.697Z,20.40
2022-08-19T14:23:13.303Z,20.92
2022-08-19T14:25:20.196Z,20.45
2022-08-19T14:27:24.510Z,21.02
2022-08-19T14:29:30.015Z,21.11
2022-08-19T14:31:32.560Z,21.13
2022-08-19T14:33:35.197Z,20.51
2022-08-19T14:35:38.203Z,20.64
2022-08-19T14:37:45.594Z,20.11
2022-08-19T14:39:58.711Z,21.08
2022-08-19T14:42:01.318Z,20.26
2022-08-19T14:44:04.797Z,20.56
2022-08-19T14:46:10.514Z,21.04
2022-08-19T14:48:19.266Z,20.92
2022-08-19T14:50:22.242Z,21.05
2022-08-19T14:52:24.948Z,20.83
2022-08-19T14:54:27.542Z,21.14
2022-08-19T14:56:32.982Z,21.02
2022-08-19T14:58:38.927Z,21.43
2022-08-19T15:00:41.675Z,21.03
2022-08-19T15:02:47.136Z,21.50
2022-08-19T15:04:58.494Z,23.21
2022-08-19T15:07:03.568Z,23.64
2022-08-19T15:09:07.068Z,23.68
2022-08-19T15:11:15.865Z,23.83
2022-08-19T15:13:18.958Z,25.63
2022-08-19T15:15:23.210Z,26.41
2022-08-19T15:17:41.394Z,28.60
2022-08-19T15:19:48.327Z,26.72
2022-08-19T15:21:51.442Z,26.40
2022-08-19T15:23:54.700Z,28.15
2022-08-19T15:25:57.265Z,27.59
2022-08-19T15:28:01.254Z,28.39
2022-08-19T15:30:05.171Z,28.52
2022-08-19T15:32:09.049Z,30.37
2022-08-19T15:34:11.810Z,32.18
2022-08-19T15:36:14.372Z,31.59
2022-08-19T15:38:26.039Z,29.93
2022-08-19T15:40:28.714Z,31.21
2022-08-19T15:42:31.267Z,31.31
2022-08-19T15:44:34.565Z,32.67
2022-08-19T15:46:40.089Z,32.30
2022-08-19T15:48:42.665Z,30.70
2022-08-19T15:50:45.263Z,32.45
2022-08-19T15:52:55.502Z,31.79
2022-08-19T15:55:00.458Z,33.49
2022-08-19T15:57:21.650Z,34.55
2022-08-19T15:59:47.279Z,33.73
2022-08-19T16:02:16.600Z,34.37
2022-08-19T16:04:38.263Z,36.27
2022-08-19T16:06:44.220Z,33.42
2022-08-19T16:08:50.256Z,36.06
2022-08-19T16:10:52.817Z,35.42
2022-08-19T16:12:57.698Z,34.30
2022-08-19T16:15:00.595Z,36.39
2022-08-19T16:17:03.531Z,35.19
2022-08-19T16:19:10.383Z,36.18
2022-08-19T16:21:19.356Z,36.44
2022-08-19T16:23:22.673Z,34.90
2022-08-19T16:25:28.719Z,34.91
2022-08-19T16:27:31.379Z,35.47
2022-08-19T16:29:39.480Z,35.00
2022-08-19T16:31:45.070Z,35.47
2022-08-19T16:33:47.944Z,38.35
2022-08-19T16:36:00.108Z,37.92
2022-08-19T16:38:10.128Z,36.96
2022-08-19T16:40:13.193Z,36.72
2022-08-19T16:42:15.849Z,36.33
2022-08-19T16:44:19.743Z,37.74
2022-08-19T16:46:26.811Z,37.17
2022-08-19T16:48:31.121Z,37.77
2022-08-19T16:50:48.814Z,38.40
2022-08-19T16:52:52.242Z,38.86
2022-08-19T16:54:55.200Z,39.75
2022-08-19T16:56:58.608Z,38.74
2022-08-19T16:59:01.400Z,37.59
2022-08-19T17:01:06.250Z,38.03
2022-08-19T17:03:14.662Z,38.60
2022-08-19T17:05:17.710Z,38.52
2022-08-19T17:07:20.306Z,38.46
2022-08-19T17:09:26.128Z,40.04
2022-08-19T17:11:31.408Z,38.98
2022-08-19T17:13:34.865Z,39.52
2022-08-19T17:15:37.757Z,40.22
2022-08-19T17:17:40.424Z,39.38
2022-08-19T17:19:43.635Z,39.82
2022-08-19T17:21:46.295Z,40.15
2022-08-19T17:23:49.806Z,40.89
2022-08-19T17:25:52.524Z,42.86
2022-08-19T17:27:55.572Z,40.26
2022-08-19T17:30:00.053Z,39.72
2022-08-19T17:32:02.907Z,39.88
2022-08-19T17:34:05.512Z,40.47
2022-08-19T17:36:10.575Z,40.27
2022-08-19T17:38:16.698Z,41.50
2022-08-19T17:40:21.288Z,40.73
2022-08-19T17:42:26.871Z,40.80
2022-08-19T17:44:29.500Z,41.50
2022-08-19T17:46:32.536Z,41.32
2022-08-19T17:48:39.263Z,41.28
2022-08-19T17:50:42.893Z,41.94
2022-08-19T17:52:48.077Z,41.15
2022-08-19T17:54:50.685Z,41.73
2022-08-19T17:56:53.623Z,43.52
2022-08-19T17:59:00.155Z,42.05
2022-08-19T18:01:04.109Z,43.33
2022-08-19T18:03:08.534Z,42.57
2022-08-19T18:05:15.091Z,44.12
2022-08-19T18:07:21.740Z,42.94
2022-08-19T18:09:41.162Z,44.23
2022-08-19T18:11:44.978Z,43.07
2022-08-19T18:13:55.487Z,43.63
2022-08-19T18:16:01.054Z,43.15
2022-08-19T18:18:03.714Z,45.91
2022-08-19T18:20:18.635Z,44.59
2022-08-19T18:22:42.391Z,45.63
2022-08-19T18:24:45.890Z,44.21
2022-08-19T18:26:49.424Z,44.03
2022-08-19T18:28:52.508Z,44.09
2022-08-19T18:30:56.330Z,45.15
2022-08-19T18:32:59.913Z,45.32
2022-08-19T18:35:05.318Z,47.24
2022-08-19T18:37:08.102Z,46.01
2022-08-19T18:39:47.864Z,44.95
2022-08-19T18:42:08.932Z,44.79
2022-08-19T18:44:29.960Z,46.05
2022-08-19T18:46:51.643Z,45.29
2022-08-19T18:49:07.093Z,45.92
2022-08-19T18:51:10.413Z,45.39
2022-08-19T18:53:14.233Z,45.92
2022-08-19T18:55:18.513Z,46.19
2022-08-19T18:57:24.949Z,46.87
2022-08-19T18:59:29.778Z,46.74
2022-08-19T19:01:37.674Z,46.61
2022-08-19T19:03:53.551Z,46.39
2022-08-19T19:05:56.181Z,46.57
2022-08-19T19:08:00.671Z,47.29
2022-08-19T19:10:04.229Z,46.81
2022-08-19T19:12:10.568Z,47.47
2022-08-19T19:14:32.829Z,47.01
2022-08-19T19:16:43.642Z,48.41
2022-08-19T19:18:47.703Z,47.97
2022-08-19T19:20:50.274Z,48.32
2022-08-19T19:22:56.011Z,48.13
2022-08-19T19:25:00.840Z,47.39
2022-08-19T19:27:07.113Z,47.18
2022-08-19T19:29:09.751Z,47.15
2022-08-19T19:31:16.221Z,47.34
2022-08-19T19:33:19.821Z,47.80
2022-08-19T19:35:22.966Z,48.78
2022-08-19T19:37:25.958Z,48.73
2022-08-19T19:39:44.928Z,48.13
2022-08-19T19:41:49.710Z,47.79
2022-08-19T19:44:30.084Z,47.72
2022-08-19T19:46:21.425Z,47.84
2022-08-19T19:48:24.901Z,48.01
2022-08-19T19:50:31.355Z,49.31
2022-08-19T19:52:34.081Z,48.81
2022-08-19T19:54:37.988Z,48.06
2022-08-19T19:56:43.686Z,48.85
2022-08-19T19:58:46.491Z,48.92
2022-08-19T20:00:49.154Z,49.85
2022-08-19T20:02:55.444Z,49.11
2022-08-19T20:04:58.950Z,48.92
2022-08-19T20:07:01.609Z,48.61
2022-08-19T20:09:17.580Z,49.62
2022-08-19T20:11:36.823Z,48.99
2022-08-19T20:13:40.860Z,49.65
2022-08-19T20:15:47.008Z,49.17
2022-08-19T20:17:49.668Z,50.99
2022-08-19T20:19:53.672Z,51.45
2022-08-19T20:21:57.575Z,50.27
2022-08-19T20:24:09.633Z,50.11
2022-08-19T20:26:14.832Z,50.69
2022-08-19T20:28:35.085Z,50.95
2022-08-19T20:30:43.769Z,50.51
2022-08-19T20:32:50.579Z,49.97
2022-08-19T20:34:53.264Z,50.27
2022-08-19T20:36:56.123Z,49.98
2022-08-19T20:38:59.198Z,49.73
2022-08-19T20:41:02.693Z,50.61
2022-08-19T20:43:10.746Z,50.02
2022-08-19T20:45:32.334Z,50.63
2022-08-19T20:47:36.770Z,49.96
2022-08-19T20:49:39.557Z,51.04
2022-08-19T20:51:42.269Z,50.43
2022-08-19T20:53:45.312Z,50.54
2022-08-19T20:55:52.141Z,50.25
2022-08-19T20:57:55.255Z,50.48
2022-08-19T20:59:58.003Z,50.72
2022-08-19T21:02:00.747Z,50.43
2022-08-19T21:04:04.133Z,50.22
2022-08-19T21:06:07.455Z,50.07
2022-08-19T21:08:11.536Z,50.22
2022-08-19T21:10:16.761Z,50.09
2022-08-19T21:12:19.753Z,50.28
2022-08-19T21:14:23.355Z,49.87
2022-08-19T21:16:27.043Z,50.47
2022-08-19T21:18:29.747Z,50.48
2022-08-19T21:20:32.611Z,50.50
2022-08-19T21:22:35.261Z,50.80
2022-08-19T21:24:38.242Z,50.82
2022-08-19T21:26:41.400Z,50.64
2022-08-19T21:28:44.034Z,50.69
2022-08-19T21:30:47.001Z,51.15
2022-08-19T21:32:52.553Z,51.42
2022-08-19T21:34:55.517Z,51.60
2022-08-19T21:36:58.261Z,52.01
2022-08-19T21:39:01.074Z,52.00
2022-08-19T21:41:06.493Z,52.42
2022-08-19T21:43:09.491Z,52.26
2022-08-19T21:45:13.598Z,52.19
2022-08-19T21:47:16.458Z,52.31
2022-08-19T21:49:19.855Z,52.30
2022-08-19T21:51:22.596Z,52.99
2022-08-19T21:53:25.275Z,52.84
2022-08-19T21:55:34.489Z,52.71
2022-08-19T21:57:37.297Z,52.43
2022-08-19T21:59:43.524Z,52.90
2022-08-19T22:01:52.003Z,53.23
2022-08-19T22:03:59.422Z,52.97
2022-08-19T22:06:02.164Z,53.58
2022-08-19T22:08:05.025Z,53.51
2022-08-19T22:10:08.155Z,53.53
2022-08-19T22:12:22.013Z,53.61
2022-08-19T22:14:24.718Z,53.53
2022-08-19T22:16:27.475Z,53.47
2022-08-19T22:18:32.374Z,53.53
2022-08-19T22:20:35.480Z,53.20
2022-08-19T22:22:39.927Z,53.08
2022-08-19T22:24:42.670Z,52.91
2022-08-19T22:26:45.264Z,53.06
2022-08-19T22:28:48.002Z,52.67
2022-08-19T22:30:52.370Z,52.97
2022-08-19T22:33:02.340Z,52.51
2022-08-19T22:35:08.454Z,52.61
2022-08-19T22:37:11.293Z,52.98
2022-08-19T22:39:13.964Z,52.71
2022-08-19T22:41:16.569Z,53.34
2022-08-19T22:43:22.261Z,52.94
2022-08-19T22:45:24.993Z,52.49
2022-08-19T22:47:31.988Z,53.19
2022-08-19T22:49:36.937Z,52.93
2022-08-19T22:51:58.173Z,53.03
2022-08-19T22:54:02.556Z,52.74
2022-08-19T22:56:10.844Z,52.91
2022-08-19T22:58:17.574Z,53.17
2022-08-19T23:00:31.690Z,53.18
2022-08-19T23:02:38.576Z,53.34
2022-08-19T23:04:54.717Z,53.86
2022-08-19T23:06:57.429Z,54.23
2022-08-19T23:09:00.093Z,54.40
2022-08-19T23:11:02.745Z,54.25
2022-08-19T23:13:06.764Z,54.56
2022-08-19T23:15:16.664Z,54.47
2022-08-19T23:17:20.507Z,54.11
2022-08-19T23:19:23.236Z,54.28
2022-08-19T23:21:26.639Z,54.40
2022-08-19T23:23:29.464Z,54.56
2022-08-19T23:25:34.781Z,54.52
2022-08-19T23:27:56.086Z,54.90
2022-08-19T23:30:17.451Z,54.66
2022-08-19T23:32:21.450Z,54.83
2022-08-19T23:34:24.071Z,55.37
2022-08-19T23:36:27.253Z,55.49
2022-08-19T23:38:34.890Z,55.61
2022-08-19T23:40:38.992Z,55.78
2022-08-19T23:42:42.361Z,55.93
2022-08-19T23:44:52.132Z,56.11
2022-08-19T23:46:55.758Z,56.59
2022-08-19T23:48:59.901Z,56.50
2022-08-19T23:51:05.557Z,56.55
2022-08-19T23:53:13.314Z,57.01
2022-08-19T23:55:18.954Z,57.11
2022-08-19T23:57:21.611Z,57.01
2022-08-19T23:59:24.423Z,57.28
